sensor_id;sensor_type;location;lat;lon;timestamp;temperature;humidity
14771;DHT22;7477;45.222;5.688;2022-07-23T00:00:57;29.30;51.70
14771;DHT22;7477;45.222;5.688;2022-07-23T00:04:16;29.30;51.30
14771;DHT22;7477;45.222;5.688;2022-07-23T00:07:35;29.30;51.50
14771;DHT22;7477;45.222;5.688;2022-07-23T00:10:54;29.10;52.10
14771;DHT22;7477;45.222;5.688;2022-07-23T00:14:14;28.90;52.60
14771;DHT22;7477;45.222;5.688;2022-07-23T00:17:33;28.90;52.60
14771;DHT22;7477;45.222;5.688;2022-07-23T00:20:53;28.80;52.60
14771;DHT22;7477;45.222;5.688;2022-07-23T00:24:12;28.90;52.70
14771;DHT22;7477;45.222;5.688;2022-07-23T00:27:32;28.80;53.00
14771;DHT22;7477;45.222;5.688;2022-07-23T00:30:51;28.90;52.50
14771;DHT22;7477;45.222;5.688;2022-07-23T00:34:10;29.00;52.30
14771;DHT22;7477;45.222;5.688;2022-07-23T00:37:29;28.70;52.60
14771;DHT22;7477;45.222;5.688;2022-07-23T00:40:48;28.90;52.40
14771;DHT22;7477;45.222;5.688;2022-07-23T00:44:22;28.70;52.60
14771;DHT22;7477;45.222;5.688;2022-07-23T00:47:42;28.80;52.80
14771;DHT22;7477;45.222;5.688;2022-07-23T00:51:02;28.90;53.00
14771;DHT22;7477;45.222;5.688;2022-07-23T00:54:23;29.40;52.20
14771;DHT22;7477;45.222;5.688;2022-07-23T00:57:42;29.60;52.60
14771;DHT22;7477;45.222;5.688;2022-07-23T01:01:02;29.70;52.50
14771;DHT22;7477;45.222;5.688;2022-07-23T01:04:21;29.70;52.60
14771;DHT22;7477;45.222;5.688;2022-07-23T01:07:41;29.70;53.00
14771;DHT22;7477;45.222;5.688;2022-07-23T01:11:00;29.60;53.40
14771;DHT22;7477;45.222;5.688;2022-07-23T01:14:19;29.60;53.60
14771;DHT22;7477;45.222;5.688;2022-07-23T01:17:39;29.60;53.60
14771;DHT22;7477;45.222;5.688;2022-07-23T01:20:58;29.70;53.70
14771;DHT22;7477;45.222;5.688;2022-07-23T01:24:18;29.60;54.00
14771;DHT22;7477;45.222;5.688;2022-07-23T01:27:40;29.60;54.10
14771;DHT22;7477;45.222;5.688;2022-07-23T01:30:59;29.40;55.10
14771;DHT22;7477;45.222;5.688;2022-07-23T01:34:19;29.20;55.60
14771;DHT22;7477;45.222;5.688;2022-07-23T01:37:38;29.20;55.70
14771;DHT22;7477;45.222;5.688;2022-07-23T01:40:58;29.20;55.70
14771;DHT22;7477;45.222;5.688;2022-07-23T01:44:17;29.20;55.70
14771;DHT22;7477;45.222;5.688;2022-07-23T01:47:36;29.30;55.40
14771;DHT22;7477;45.222;5.688;2022-07-23T01:50:55;29.20;56.00
14771;DHT22;7477;45.222;5.688;2022-07-23T01:54:15;29.10;56.30
14771;DHT22;7477;45.222;5.688;2022-07-23T01:57:34;28.90;56.50
14771;DHT22;7477;45.222;5.688;2022-07-23T02:00:53;28.90;56.70
14771;DHT22;7477;45.222;5.688;2022-07-23T02:04:13;28.80;57.10
14771;DHT22;7477;45.222;5.688;2022-07-23T02:07:32;28.70;57.90
14771;DHT22;7477;45.222;5.688;2022-07-23T02:10:51;28.50;58.10
14771;DHT22;7477;45.222;5.688;2022-07-23T02:14:10;28.40;58.10
14771;DHT22;7477;45.222;5.688;2022-07-23T02:17:29;28.50;58.30
14771;DHT22;7477;45.222;5.688;2022-07-23T02:20:49;28.40;59.30
14771;DHT22;7477;45.222;5.688;2022-07-23T02:24:08;28.30;60.20
14771;DHT22;7477;45.222;5.688;2022-07-23T02:27:27;28.30;61.20
14771;DHT22;7477;45.222;5.688;2022-07-23T02:30:47;28.30;61.50
14771;DHT22;7477;45.222;5.688;2022-07-23T02:34:06;28.20;62.40
14771;DHT22;7477;45.222;5.688;2022-07-23T02:37:26;28.00;63.60
14771;DHT22;7477;45.222;5.688;2022-07-23T02:40:45;28.00;64.10
14771;DHT22;7477;45.222;5.688;2022-07-23T02:44:04;27.90;64.40
14771;DHT22;7477;45.222;5.688;2022-07-23T02:47:23;27.90;64.90
14771;DHT22;7477;45.222;5.688;2022-07-23T02:50:42;27.80;65.10
14771;DHT22;7477;45.222;5.688;2022-07-23T02:54:02;27.90;64.70
14771;DHT22;7477;45.222;5.688;2022-07-23T02:57:21;27.90;64.80
14771;DHT22;7477;45.222;5.688;2022-07-23T03:00:40;27.90;64.40
14771;DHT22;7477;45.222;5.688;2022-07-23T03:04:00;28.00;63.90
14771;DHT22;7477;45.222;5.688;2022-07-23T03:07:19;28.40;62.10
14771;DHT22;7477;45.222;5.688;2022-07-23T03:10:38;28.60;61.40
14771;DHT22;7477;45.222;5.688;2022-07-23T03:13:58;28.60;61.40
14771;DHT22;7477;45.222;5.688;2022-07-23T03:17:17;28.60;61.40
14771;DHT22;7477;45.222;5.688;2022-07-23T03:20:36;28.60;61.80
14771;DHT22;7477;45.222;5.688;2022-07-23T03:23:55;28.80;60.90
14771;DHT22;7477;45.222;5.688;2022-07-23T03:27:15;28.70;61.10
14771;DHT22;7477;45.222;5.688;2022-07-23T03:30:34;28.60;61.20
14771;DHT22;7477;45.222;5.688;2022-07-23T03:33:53;28.70;60.60
14771;DHT22;7477;45.222;5.688;2022-07-23T03:37:13;28.80;60.20
14771;DHT22;7477;45.222;5.688;2022-07-23T03:40:32;28.60;61.30
14771;DHT22;7477;45.222;5.688;2022-07-23T03:43:52;28.40;62.60
14771;DHT22;7477;45.222;5.688;2022-07-23T03:47:11;28.30;63.00
14771;DHT22;7477;45.222;5.688;2022-07-23T03:50:31;28.10;63.70
14771;DHT22;7477;45.222;5.688;2022-07-23T03:53:50;28.00;64.40
14771;DHT22;7477;45.222;5.688;2022-07-23T03:57:09;28.00;64.70
14771;DHT22;7477;45.222;5.688;2022-07-23T04:00:28;27.90;64.50
14771;DHT22;7477;45.222;5.688;2022-07-23T04:03:47;27.90;64.80
14771;DHT22;7477;45.222;5.688;2022-07-23T04:07:07;28.00;64.20
14771;DHT22;7477;45.222;5.688;2022-07-23T04:10:27;28.40;62.70
14771;DHT22;7477;45.222;5.688;2022-07-23T04:13:46;28.30;62.90
14771;DHT22;7477;45.222;5.688;2022-07-23T04:17:05;28.10;64.20
14771;DHT22;7477;45.222;5.688;2022-07-23T04:20:25;27.90;65.20
14771;DHT22;7477;45.222;5.688;2022-07-23T04:23:44;27.80;65.20
14771;DHT22;7477;45.222;5.688;2022-07-23T04:27:04;27.70;65.70
14771;DHT22;7477;45.222;5.688;2022-07-23T04:30:23;27.90;64.70
14771;DHT22;7477;45.222;5.688;2022-07-23T04:33:42;27.90;64.40
14771;DHT22;7477;45.222;5.688;2022-07-23T04:37:01;26.80;67.70
14771;DHT22;7477;45.222;5.688;2022-07-23T04:40:20;26.60;68.70
14771;DHT22;7477;45.222;5.688;2022-07-23T04:43:39;26.50;69.80
14771;DHT22;7477;45.222;5.688;2022-07-23T04:46:59;26.20;72.00
14771;DHT22;7477;45.222;5.688;2022-07-23T04:50:19;26.30;71.60
14771;DHT22;7477;45.222;5.688;2022-07-23T04:53:40;26.30;70.70
14771;DHT22;7477;45.222;5.688;2022-07-23T04:57:00;26.20;71.00
14771;DHT22;7477;45.222;5.688;2022-07-23T05:00:19;26.20;70.60
14771;DHT22;7477;45.222;5.688;2022-07-23T05:03:38;26.40;70.10
14771;DHT22;7477;45.222;5.688;2022-07-23T05:06:58;26.40;69.80
14771;DHT22;7477;45.222;5.688;2022-07-23T05:10:17;26.40;69.70
14771;DHT22;7477;45.222;5.688;2022-07-23T05:13:36;26.40;69.80
14771;DHT22;7477;45.222;5.688;2022-07-23T05:16:56;26.50;70.00
14771;DHT22;7477;45.222;5.688;2022-07-23T05:20:16;26.40;71.70
14771;DHT22;7477;45.222;5.688;2022-07-23T05:23:35;26.10;76.20
14771;DHT22;7477;45.222;5.688;2022-07-23T05:26:54;25.90;81.60
14771;DHT22;7477;45.222;5.688;2022-07-23T05:30:13;25.80;82.70
14771;DHT22;7477;45.222;5.688;2022-07-23T05:33:33;25.80;84.00
14771;DHT22;7477;45.222;5.688;2022-07-23T05:36:53;25.70;81.60
14771;DHT22;7477;45.222;5.688;2022-07-23T05:40:12;26.00;82.10
14771;DHT22;7477;45.222;5.688;2022-07-23T05:43:32;25.70;87.00
14771;DHT22;7477;45.222;5.688;2022-07-23T05:46:51;26.00;84.70
14771;DHT22;7477;45.222;5.688;2022-07-23T05:50:11;26.20;84.60
14771;DHT22;7477;45.222;5.688;2022-07-23T05:53:30;25.70;87.60
14771;DHT22;7477;45.222;5.688;2022-07-23T05:56:50;25.30;89.70
14771;DHT22;7477;45.222;5.688;2022-07-23T06:00:10;25.00;89.50
14771;DHT22;7477;45.222;5.688;2022-07-23T06:03:30;24.90;89.20
14771;DHT22;7477;45.222;5.688;2022-07-23T06:06:50;25.00;89.20
14771;DHT22;7477;45.222;5.688;2022-07-23T06:10:09;25.10;89.60
14771;DHT22;7477;45.222;5.688;2022-07-23T06:13:28;25.20;89.30
14771;DHT22;7477;45.222;5.688;2022-07-23T06:16:48;25.20;88.30
14771;DHT22;7477;45.222;5.688;2022-07-23T06:20:08;25.20;87.70
14771;DHT22;7477;45.222;5.688;2022-07-23T06:23:28;24.70;90.00
14771;DHT22;7477;45.222;5.688;2022-07-23T06:26:47;24.50;90.50
14771;DHT22;7477;45.222;5.688;2022-07-23T06:30:08;24.40;90.80
14771;DHT22;7477;45.222;5.688;2022-07-23T06:33:27;24.30;90.60
14771;DHT22;7477;45.222;5.688;2022-07-23T06:36:47;24.20;90.70
14771;DHT22;7477;45.222;5.688;2022-07-23T06:40:06;24.30;90.90
14771;DHT22;7477;45.222;5.688;2022-07-23T06:43:26;24.30;91.60
14771;DHT22;7477;45.222;5.688;2022-07-23T06:46:45;24.40;92.10
14771;DHT22;7477;45.222;5.688;2022-07-23T06:50:05;24.40;92.10
14771;DHT22;7477;45.222;5.688;2022-07-23T06:53:24;24.40;92.60
14771;DHT22;7477;45.222;5.688;2022-07-23T06:56:43;24.20;92.90
14771;DHT22;7477;45.222;5.688;2022-07-23T07:00:03;24.30;92.70
14771;DHT22;7477;45.222;5.688;2022-07-23T07:03:23;24.20;92.50
14771;DHT22;7477;45.222;5.688;2022-07-23T07:06:42;24.20;91.70
14771;DHT22;7477;45.222;5.688;2022-07-23T07:10:03;24.20;92.00
14771;DHT22;7477;45.222;5.688;2022-07-23T07:13:22;24.30;91.70
14771;DHT22;7477;45.222;5.688;2022-07-23T07:16:42;24.40;91.40
14771;DHT22;7477;45.222;5.688;2022-07-23T07:20:01;24.60;91.30
14771;DHT22;7477;45.222;5.688;2022-07-23T07:23:21;24.60;91.00
14771;DHT22;7477;45.222;5.688;2022-07-23T07:26:40;24.80;91.30
14771;DHT22;7477;45.222;5.688;2022-07-23T07:29:59;24.70;90.60
14771;DHT22;7477;45.222;5.688;2022-07-23T07:33:19;24.60;90.40
14771;DHT22;7477;45.222;5.688;2022-07-23T07:36:40;24.70;90.30
14771;DHT22;7477;45.222;5.688;2022-07-23T07:39:59;24.60;90.40
14771;DHT22;7477;45.222;5.688;2022-07-23T07:43:18;24.70;90.20
14771;DHT22;7477;45.222;5.688;2022-07-23T07:46:37;24.80;90.20
14771;DHT22;7477;45.222;5.688;2022-07-23T07:49:56;24.80;90.10
14771;DHT22;7477;45.222;5.688;2022-07-23T07:53:16;24.90;90.20
14771;DHT22;7477;45.222;5.688;2022-07-23T07:56:35;24.90;90.30
14771;DHT22;7477;45.222;5.688;2022-07-23T07:59:54;25.00;90.50
14771;DHT22;7477;45.222;5.688;2022-07-23T08:03:13;25.10;90.40
14771;DHT22;7477;45.222;5.688;2022-07-23T08:06:33;25.10;90.30
14771;DHT22;7477;45.222;5.688;2022-07-23T08:09:52;25.20;90.20
14771;DHT22;7477;45.222;5.688;2022-07-23T08:13:15;25.30;90.50
14771;DHT22;7477;45.222;5.688;2022-07-23T08:16:35;25.40;90.30
14771;DHT22;7477;45.222;5.688;2022-07-23T08:19:54;25.60;89.50
14771;DHT22;7477;45.222;5.688;2022-07-23T08:23:13;25.80;88.20
14771;DHT22;7477;45.222;5.688;2022-07-23T08:26:32;25.80;88.10
14771;DHT22;7477;45.222;5.688;2022-07-23T08:29:52;25.80;87.90
14771;DHT22;7477;45.222;5.688;2022-07-23T08:33:15;25.90;87.60
14771;DHT22;7477;45.222;5.688;2022-07-23T08:36:35;25.80;87.50
14771;DHT22;7477;45.222;5.688;2022-07-23T08:39:54;26.00;87.30
14771;DHT22;7477;45.222;5.688;2022-07-23T08:43:20;26.10;87.10
14771;DHT22;7477;45.222;5.688;2022-07-23T08:46:41;26.30;84.60
14771;DHT22;7477;45.222;5.688;2022-07-23T08:50:01;26.90;82.10
14771;DHT22;7477;45.222;5.688;2022-07-23T08:53:22;27.10;81.30
14771;DHT22;7477;45.222;5.688;2022-07-23T08:56:41;27.20;80.60
14771;DHT22;7477;45.222;5.688;2022-07-23T09:00:03;27.20;80.20
14771;DHT22;7477;45.222;5.688;2022-07-23T09:03:31;27.20;80.00
14771;DHT22;7477;45.222;5.688;2022-07-23T09:06:51;27.20;79.70
14771;DHT22;7477;45.222;5.688;2022-07-23T09:10:11;27.30;79.40
14771;DHT22;7477;45.222;5.688;2022-07-23T09:13:40;27.40;79.10
14771;DHT22;7477;45.222;5.688;2022-07-23T09:17:15;27.10;79.40
14771;DHT22;7477;45.222;5.688;2022-07-23T09:20:35;27.30;78.90
14771;DHT22;7477;45.222;5.688;2022-07-23T09:27:14;27.30;78.60
14771;DHT22;7477;45.222;5.688;2022-07-23T09:30:33;27.30;78.40
14771;DHT22;7477;45.222;5.688;2022-07-23T09:34:09;27.40;78.10
14771;DHT22;7477;45.222;5.688;2022-07-23T09:37:28;27.40;77.80
14771;DHT22;7477;45.222;5.688;2022-07-23T09:41:08;27.40;77.70
14771;DHT22;7477;45.222;5.688;2022-07-23T09:44:28;27.40;78.00
14771;DHT22;7477;45.222;5.688;2022-07-23T09:47:47;27.40;77.50
14771;DHT22;7477;45.222;5.688;2022-07-23T09:51:06;27.40;77.10
14771;DHT22;7477;45.222;5.688;2022-07-23T09:54:37;27.40;77.00
14771;DHT22;7477;45.222;5.688;2022-07-23T09:57:56;27.50;76.80
14771;DHT22;7477;45.222;5.688;2022-07-23T10:01:16;27.50;76.60
14771;DHT22;7477;45.222;5.688;2022-07-23T10:04:35;27.50;76.40
14771;DHT22;7477;45.222;5.688;2022-07-23T10:07:55;27.50;76.30
14771;DHT22;7477;45.222;5.688;2022-07-23T10:11:16;27.60;76.00
14771;DHT22;7477;45.222;5.688;2022-07-23T10:14:37;27.60;76.10
14771;DHT22;7477;45.222;5.688;2022-07-23T10:17:57;27.60;75.90
14771;DHT22;7477;45.222;5.688;2022-07-23T10:32:26;27.60;75.00
14771;DHT22;7477;45.222;5.688;2022-07-23T10:39:34;27.60;74.90
14771;DHT22;7477;45.222;5.688;2022-07-23T10:42:59;27.70;74.60
14771;DHT22;7477;45.222;5.688;2022-07-23T10:46:24;27.70;74.40
14771;DHT22;7477;45.222;5.688;2022-07-23T10:57:12;27.80;74.20
14771;DHT22;7477;45.222;5.688;2022-07-23T11:00:34;27.80;74.30
14771;DHT22;7477;45.222;5.688;2022-07-23T11:03:56;27.90;74.30
14771;DHT22;7477;45.222;5.688;2022-07-23T11:07:17;27.80;74.00
14771;DHT22;7477;45.222;5.688;2022-07-23T11:14:10;28.00;73.80
14771;DHT22;7477;45.222;5.688;2022-07-23T11:17:30;28.00;74.10
14771;DHT22;7477;45.222;5.688;2022-07-23T11:20:50;28.20;73.20
14771;DHT22;7477;45.222;5.688;2022-07-23T11:24:14;28.30;72.60
14771;DHT22;7477;45.222;5.688;2022-07-23T11:27:42;28.50;72.40
14771;DHT22;7477;45.222;5.688;2022-07-23T11:31:17;28.70;71.80
14771;DHT22;7477;45.222;5.688;2022-07-23T11:34:41;28.60;71.70
14771;DHT22;7477;45.222;5.688;2022-07-23T11:38:18;28.50;72.60
14771;DHT22;7477;45.222;5.688;2022-07-23T11:41:44;28.70;71.70
14771;DHT22;7477;45.222;5.688;2022-07-23T11:45:06;29.00;72.20
14771;DHT22;7477;45.222;5.688;2022-07-23T11:48:29;29.30;70.70
14771;DHT22;7477;45.222;5.688;2022-07-23T11:55:23;28.30;73.10
14771;DHT22;7477;45.222;5.688;2022-07-23T11:58:54;28.30;73.40
14771;DHT22;7477;45.222;5.688;2022-07-23T12:02:14;28.30;73.30
14771;DHT22;7477;45.222;5.688;2022-07-23T12:05:36;28.30;73.30
14771;DHT22;7477;45.222;5.688;2022-07-23T12:08:55;28.30;73.40
14771;DHT22;7477;45.222;5.688;2022-07-23T12:12:14;28.30;73.80
14771;DHT22;7477;45.222;5.688;2022-07-23T12:15:39;28.30;73.50
14771;DHT22;7477;45.222;5.688;2022-07-23T12:18:59;28.30;73.10
14771;DHT22;7477;45.222;5.688;2022-07-23T12:22:18;28.70;73.00
14771;DHT22;7477;45.222;5.688;2022-07-23T12:25:39;29.00;72.10
14771;DHT22;7477;45.222;5.688;2022-07-23T12:28:59;29.20;71.60
14771;DHT22;7477;45.222;5.688;2022-07-23T12:32:25;29.50;71.10
14771;DHT22;7477;45.222;5.688;2022-07-23T12:35:46;29.70;70.00
14771;DHT22;7477;45.222;5.688;2022-07-23T12:39:05;29.70;69.80
14771;DHT22;7477;45.222;5.688;2022-07-23T12:42:25;29.80;70.90
14771;DHT22;7477;45.222;5.688;2022-07-23T12:49:10;29.00;71.90
14771;DHT22;7477;45.222;5.688;2022-07-23T12:52:43;29.90;69.70
14771;DHT22;7477;45.222;5.688;2022-07-23T12:56:08;30.10;67.80
14771;DHT22;7477;45.222;5.688;2022-07-23T12:59:30;30.10;67.50
14771;DHT22;7477;45.222;5.688;2022-07-23T13:02:50;30.20;67.80
14771;DHT22;7477;45.222;5.688;2022-07-23T13:06:11;30.20;67.70
14771;DHT22;7477;45.222;5.688;2022-07-23T13:09:32;30.40;67.90
14771;DHT22;7477;45.222;5.688;2022-07-23T13:12:51;30.30;68.30
14771;DHT22;7477;45.222;5.688;2022-07-23T13:16:10;30.20;67.80
14771;DHT22;7477;45.222;5.688;2022-07-23T13:19:29;30.10;67.90
14771;DHT22;7477;45.222;5.688;2022-07-23T13:22:48;30.00;67.90
14771;DHT22;7477;45.222;5.688;2022-07-23T13:26:08;30.10;68.30
14771;DHT22;7477;45.222;5.688;2022-07-23T13:29:26;30.10;67.80
14771;DHT22;7477;45.222;5.688;2022-07-23T13:32:47;29.90;68.50
14771;DHT22;7477;45.222;5.688;2022-07-23T13:36:07;29.90;68.90
14771;DHT22;7477;45.222;5.688;2022-07-23T13:39:26;29.50;68.90
14771;DHT22;7477;45.222;5.688;2022-07-23T13:42:46;29.60;68.60
14771;DHT22;7477;45.222;5.688;2022-07-23T13:46:05;29.70;68.60
14771;DHT22;7477;45.222;5.688;2022-07-23T13:49:24;29.70;68.80
14771;DHT22;7477;45.222;5.688;2022-07-23T13:52:43;29.70;69.20
14771;DHT22;7477;45.222;5.688;2022-07-23T13:56:03;30.00;69.00
14771;DHT22;7477;45.222;5.688;2022-07-23T13:59:22;30.00;68.70
14771;DHT22;7477;45.222;5.688;2022-07-23T14:02:42;30.20;68.10
14771;DHT22;7477;45.222;5.688;2022-07-23T14:06:01;30.10;68.30
14771;DHT22;7477;45.222;5.688;2022-07-23T14:09:21;30.00;68.40
14771;DHT22;7477;45.222;5.688;2022-07-23T14:12:41;30.10;68.30
14771;DHT22;7477;45.222;5.688;2022-07-23T14:16:00;30.20;68.70
14771;DHT22;7477;45.222;5.688;2022-07-23T14:19:20;30.10;68.60
14771;DHT22;7477;45.222;5.688;2022-07-23T14:22:39;30.10;68.50
14771;DHT22;7477;45.222;5.688;2022-07-23T14:25:58;30.30;68.70
14771;DHT22;7477;45.222;5.688;2022-07-23T14:29:18;30.50;67.60
14771;DHT22;7477;45.222;5.688;2022-07-23T14:32:37;30.30;67.70
14771;DHT22;7477;45.222;5.688;2022-07-23T14:35:57;30.10;68.60
14771;DHT22;7477;45.222;5.688;2022-07-23T14:39:18;30.00;68.10
14771;DHT22;7477;45.222;5.688;2022-07-23T14:42:37;30.00;68.80
14771;DHT22;7477;45.222;5.688;2022-07-23T14:45:56;30.00;68.90
14771;DHT22;7477;45.222;5.688;2022-07-23T14:49:15;30.00;68.50
14771;DHT22;7477;45.222;5.688;2022-07-23T14:52:35;30.00;68.80
14771;DHT22;7477;45.222;5.688;2022-07-23T14:55:54;29.90;68.90
14771;DHT22;7477;45.222;5.688;2022-07-23T14:59:15;29.90;68.70
14771;DHT22;7477;45.222;5.688;2022-07-23T15:02:35;29.80;68.60
14771;DHT22;7477;45.222;5.688;2022-07-23T15:05:54;29.80;69.20
14771;DHT22;7477;45.222;5.688;2022-07-23T15:09:13;29.90;69.00
14771;DHT22;7477;45.222;5.688;2022-07-23T15:12:33;29.70;69.50
14771;DHT22;7477;45.222;5.688;2022-07-23T15:15:53;29.70;69.50
14771;DHT22;7477;45.222;5.688;2022-07-23T15:19:12;29.60;70.70
14771;DHT22;7477;45.222;5.688;2022-07-23T15:22:31;30.00;68.80
14771;DHT22;7477;45.222;5.688;2022-07-23T15:25:50;30.50;67.10
14771;DHT22;7477;45.222;5.688;2022-07-23T15:29:09;30.60;66.40
14771;DHT22;7477;45.222;5.688;2022-07-23T15:32:28;30.80;66.60
14771;DHT22;7477;45.222;5.688;2022-07-23T15:35:48;31.10;65.60
14771;DHT22;7477;45.222;5.688;2022-07-23T15:39:08;31.10;65.40
14771;DHT22;7477;45.222;5.688;2022-07-23T15:42:27;30.90;64.80
14771;DHT22;7477;45.222;5.688;2022-07-23T15:45:48;30.80;64.70
14771;DHT22;7477;45.222;5.688;2022-07-23T15:49:07;30.60;65.80
14771;DHT22;7477;45.222;5.688;2022-07-23T15:52:27;30.70;65.20
14771;DHT22;7477;45.222;5.688;2022-07-23T15:55:46;31.10;65.00
14771;DHT22;7477;45.222;5.688;2022-07-23T15:59:08;31.30;64.00
14771;DHT22;7477;45.222;5.688;2022-07-23T16:02:28;31.60;63.20
14771;DHT22;7477;45.222;5.688;2022-07-23T16:05:47;31.80;63.10
14771;DHT22;7477;45.222;5.688;2022-07-23T16:09:07;31.90;61.80
14771;DHT22;7477;45.222;5.688;2022-07-23T16:12:26;31.70;61.70
14771;DHT22;7477;45.222;5.688;2022-07-23T16:15:46;31.50;61.40
14771;DHT22;7477;45.222;5.688;2022-07-23T16:19:05;31.60;61.90
14771;DHT22;7477;45.222;5.688;2022-07-23T16:22:24;32.10;61.50
14771;DHT22;7477;45.222;5.688;2022-07-23T16:25:43;31.60;60.90
14771;DHT22;7477;45.222;5.688;2022-07-23T16:29:02;31.50;61.20
14771;DHT22;7477;45.222;5.688;2022-07-23T16:32:22;31.20;62.30
14771;DHT22;7477;45.222;5.688;2022-07-23T16:35:42;30.90;62.60
14771;DHT22;7477;45.222;5.688;2022-07-23T16:39:02;30.80;63.00
14771;DHT22;7477;45.222;5.688;2022-07-23T16:42:21;30.70;63.40
14771;DHT22;7477;45.222;5.688;2022-07-23T16:45:41;30.70;64.20
14771;DHT22;7477;45.222;5.688;2022-07-23T16:49:00;30.70;64.80
14771;DHT22;7477;45.222;5.688;2022-07-23T16:52:20;30.50;65.00
14771;DHT22;7477;45.222;5.688;2022-07-23T16:55:39;30.50;65.00
14771;DHT22;7477;45.222;5.688;2022-07-23T16:58:58;30.40;65.00
14771;DHT22;7477;45.222;5.688;2022-07-23T17:02:17;30.20;64.90
14771;DHT22;7477;45.222;5.688;2022-07-23T17:05:36;30.10;65.30
14771;DHT22;7477;45.222;5.688;2022-07-23T17:08:56;30.10;65.20
14771;DHT22;7477;45.222;5.688;2022-07-23T17:12:15;30.20;65.30
14771;DHT22;7477;45.222;5.688;2022-07-23T17:15:34;30.10;65.00
14771;DHT22;7477;45.222;5.688;2022-07-23T17:18:54;30.10;65.10
14771;DHT22;7477;45.222;5.688;2022-07-23T17:22:13;30.10;64.90
14771;DHT22;7477;45.222;5.688;2022-07-23T17:25:33;30.00;64.70
14771;DHT22;7477;45.222;5.688;2022-07-23T17:28:53;29.90;64.70
14771;DHT22;7477;45.222;5.688;2022-07-23T17:32:12;29.90;64.90
14771;DHT22;7477;45.222;5.688;2022-07-23T17:35:31;29.80;64.60
14771;DHT22;7477;45.222;5.688;2022-07-23T17:38:51;29.70;64.60
14771;DHT22;7477;45.222;5.688;2022-07-23T17:42:10;29.70;64.60
14771;DHT22;7477;45.222;5.688;2022-07-23T17:45:29;29.70;64.00
14771;DHT22;7477;45.222;5.688;2022-07-23T17:48:48;29.60;64.10
14771;DHT22;7477;45.222;5.688;2022-07-23T17:52:07;29.50;64.00
14771;DHT22;7477;45.222;5.688;2022-07-23T17:55:27;29.60;64.10
14771;DHT22;7477;45.222;5.688;2022-07-23T17:58:47;29.60;64.10
14771;DHT22;7477;45.222;5.688;2022-07-23T18:02:06;29.50;64.00
14771;DHT22;7477;45.222;5.688;2022-07-23T18:05:26;29.50;64.30
14771;DHT22;7477;45.222;5.688;2022-07-23T18:08:46;29.50;64.10
14771;DHT22;7477;45.222;5.688;2022-07-23T18:12:05;29.40;63.80
14771;DHT22;7477;45.222;5.688;2022-07-23T18:15:25;29.30;63.70
14771;DHT22;7477;45.222;5.688;2022-07-23T18:18:44;29.30;65.50
14771;DHT22;7477;45.222;5.688;2022-07-23T18:22:04;29.50;64.40
14771;DHT22;7477;45.222;5.688;2022-07-23T18:25:23;29.40;63.20
14771;DHT22;7477;45.222;5.688;2022-07-23T18:28:42;29.40;62.60
14771;DHT22;7477;45.222;5.688;2022-07-23T18:32:02;29.30;62.90
14771;DHT22;7477;45.222;5.688;2022-07-23T18:35:23;29.20;63.00
14771;DHT22;7477;45.222;5.688;2022-07-23T18:38:42;29.10;63.20
14771;DHT22;7477;45.222;5.688;2022-07-23T18:42:02;29.00;63.40
14771;DHT22;7477;45.222;5.688;2022-07-23T18:45:28;29.00;63.60
14771;DHT22;7477;45.222;5.688;2022-07-23T18:48:47;28.90;63.50
14771;DHT22;7477;45.222;5.688;2022-07-23T18:52:06;28.90;63.80
14771;DHT22;7477;45.222;5.688;2022-07-23T18:55:25;28.70;63.80
14771;DHT22;7477;45.222;5.688;2022-07-23T18:58:45;28.70;64.00
14771;DHT22;7477;45.222;5.688;2022-07-23T19:02:05;28.60;63.90
14771;DHT22;7477;45.222;5.688;2022-07-23T19:05:25;28.50;64.20
14771;DHT22;7477;45.222;5.688;2022-07-23T19:08:44;28.50;64.30
14771;DHT22;7477;45.222;5.688;2022-07-23T19:12:04;28.40;64.40
14771;DHT22;7477;45.222;5.688;2022-07-23T19:15:23;28.40;64.20
14771;DHT22;7477;45.222;5.688;2022-07-23T19:18:42;28.40;64.20
14771;DHT22;7477;45.222;5.688;2022-07-23T19:22:01;28.40;64.00
14771;DHT22;7477;45.222;5.688;2022-07-23T19:25:24;28.40;64.10
14771;DHT22;7477;45.222;5.688;2022-07-23T19:28:44;28.40;64.30
14771;DHT22;7477;45.222;5.688;2022-07-23T19:32:06;28.20;64.20
14771;DHT22;7477;45.222;5.688;2022-07-23T19:35:25;28.20;64.50
14771;DHT22;7477;45.222;5.688;2022-07-23T19:38:45;28.20;64.60
14771;DHT22;7477;45.222;5.688;2022-07-23T19:42:05;28.10;64.90
14771;DHT22;7477;45.222;5.688;2022-07-23T19:45:24;28.00;65.20
14771;DHT22;7477;45.222;5.688;2022-07-23T19:48:43;27.90;65.60
14771;DHT22;7477;45.222;5.688;2022-07-23T19:52:03;27.80;65.90
14771;DHT22;7477;45.222;5.688;2022-07-23T19:55:22;27.80;66.10
14771;DHT22;7477;45.222;5.688;2022-07-23T19:58:41;27.80;66.30
14771;DHT22;7477;45.222;5.688;2022-07-23T20:02:01;27.60;66.40
14771;DHT22;7477;45.222;5.688;2022-07-23T20:05:21;27.70;66.50
14771;DHT22;7477;45.222;5.688;2022-07-23T20:08:40;27.70;66.50
14771;DHT22;7477;45.222;5.688;2022-07-23T20:11:59;27.60;66.50
14771;DHT22;7477;45.222;5.688;2022-07-23T20:15:19;27.60;66.70
14771;DHT22;7477;45.222;5.688;2022-07-23T20:18:39;27.50;66.70
14771;DHT22;7477;45.222;5.688;2022-07-23T20:21:59;27.50;66.80
14771;DHT22;7477;45.222;5.688;2022-07-23T20:25:18;27.50;66.90
14771;DHT22;7477;45.222;5.688;2022-07-23T20:28:38;27.40;67.00
14771;DHT22;7477;45.222;5.688;2022-07-23T20:31:57;27.40;66.90
14771;DHT22;7477;45.222;5.688;2022-07-23T20:35:16;27.40;66.80
14771;DHT22;7477;45.222;5.688;2022-07-23T20:38:35;27.50;66.80
14771;DHT22;7477;45.222;5.688;2022-07-23T20:41:55;27.30;66.70
14771;DHT22;7477;45.222;5.688;2022-07-23T20:45:14;27.30;66.90
14771;DHT22;7477;45.222;5.688;2022-07-23T20:48:33;27.20;67.20
14771;DHT22;7477;45.222;5.688;2022-07-23T20:51:53;27.20;67.00
14771;DHT22;7477;45.222;5.688;2022-07-23T20:55:13;27.10;66.90
14771;DHT22;7477;45.222;5.688;2022-07-23T20:58:33;27.10;66.90
14771;DHT22;7477;45.222;5.688;2022-07-23T21:01:52;27.20;66.60
14771;DHT22;7477;45.222;5.688;2022-07-23T21:05:11;27.10;66.60
14771;DHT22;7477;45.222;5.688;2022-07-23T21:08:31;27.20;66.60
14771;DHT22;7477;45.222;5.688;2022-07-23T21:11:50;27.10;66.40
14771;DHT22;7477;45.222;5.688;2022-07-23T21:15:09;27.20;66.30
14771;DHT22;7477;45.222;5.688;2022-07-23T21:18:29;27.10;66.30
14771;DHT22;7477;45.222;5.688;2022-07-23T21:21:48;27.10;66.40
14771;DHT22;7477;45.222;5.688;2022-07-23T21:25:09;27.10;66.30
14771;DHT22;7477;45.222;5.688;2022-07-23T21:28:28;26.90;66.80
14771;DHT22;7477;45.222;5.688;2022-07-23T21:31:47;26.80;67.20
14771;DHT22;7477;45.222;5.688;2022-07-23T21:35:07;26.70;67.40
14771;DHT22;7477;45.222;5.688;2022-07-23T21:38:27;26.80;67.60
14771;DHT22;7477;45.222;5.688;2022-07-23T21:41:47;26.70;68.00
14771;DHT22;7477;45.222;5.688;2022-07-23T21:45:07;26.60;68.20
14771;DHT22;7477;45.222;5.688;2022-07-23T21:48:27;26.50;68.40
14771;DHT22;7477;45.222;5.688;2022-07-23T21:51:46;26.60;68.60
14771;DHT22;7477;45.222;5.688;2022-07-23T21:55:07;26.50;68.50
14771;DHT22;7477;45.222;5.688;2022-07-23T21:58:26;26.40;68.70